KMOD/MOD METAR and TAF weather

Enter ICAO airport designator
Station Type Date Time Source
KMOD METAR 2019/08/22 19:53 UTC NOAA

KMOD 221953Z 10SM CLR 32/18 A2975 RMK AO2 SLP073 T03220178 $


Station Type Date Time Source
KMOD Decoded METAR 2019/08/22 19:53 UTC NOAA

Station name not available
Aug 22, 2019 - 03:53 PM EDT / 2019.08.22 1953 UTC
Visibility: 10 mile(s):0
Sky conditions: clear
Temperature: 90.0 F (32.2 C)
Dew Point: 64.0 F (17.8 C)
Relative Humidity: 42%
Pressure (altimeter): 29.75 in. Hg (1007 hPa)
ob: KMOD 221953Z 10SM CLR 32/18 A2975 RMK AO2 SLP073 T03220178
cycle: 20

Station Type Date Time Source
KMOD TAF 2019/08/22 18:45 UTC NOAA

TAF KMOD 221740Z 2218/2318 32011KT P6SM SKC
FM230600 35004KT P6SM SKC

Example: see airport list